createdAt,value
2022-11-06T00:01:46.042Z,77060.47
2022-11-06T00:04:12.609Z,77060.47
2022-11-06T00:06:48.384Z,77070.13
2022-11-06T00:09:16.501Z,77070.13
2022-11-06T00:11:43.322Z,77075.91
2022-11-06T00:14:09.973Z,77081.69
2022-11-06T00:16:40.341Z,77083.59
2022-11-06T00:19:07.471Z,77091.31
2022-11-06T00:21:35.086Z,77093.25
2022-11-06T00:24:02.748Z,77091.31
2022-11-06T00:26:30.193Z,77097.09
2022-11-06T00:28:56.965Z,77095.19
2022-11-06T00:31:24.975Z,77102.88
2022-11-06T00:33:52.850Z,77102.88
2022-11-06T00:36:21.154Z,77102.88
2022-11-06T00:38:48.061Z,77110.59
2022-11-06T00:41:15.563Z,77122.16
2022-11-06T00:43:42.497Z,77126.00
2022-11-06T00:46:13.227Z,77135.66
2022-11-06T00:48:40.801Z,77137.56
2022-11-06T00:51:12.974Z,77137.56
2022-11-06T00:53:40.230Z,77141.44
2022-11-06T00:56:11.131Z,77145.28
2022-11-06T00:58:38.088Z,77149.13
2022-11-06T01:01:07.737Z,77145.28
2022-11-06T01:03:34.300Z,77143.34
2022-11-06T01:06:05.159Z,77153.00
2022-11-06T01:08:31.916Z,77156.84
2022-11-06T01:10:58.472Z,77151.06
2022-11-06T01:13:24.979Z,77153.00
2022-11-06T01:15:51.494Z,77160.69
2022-11-06T01:18:18.074Z,77164.56
2022-11-06T01:20:44.747Z,77174.19
2022-11-06T01:23:11.266Z,77172.28
2022-11-06T01:25:37.797Z,77178.06
2022-11-06T01:28:04.411Z,77176.13
2022-11-06T01:30:30.968Z,77181.91
2022-11-06T01:32:57.523Z,77185.75
2022-11-06T01:35:24.088Z,77179.97
2022-11-06T01:37:50.608Z,77183.84
2022-11-06T01:40:17.129Z,77179.97
2022-11-06T01:42:43.673Z,77174.19
2022-11-06T01:45:45.768Z,77179.97
2022-11-06T01:48:13.288Z,77191.53
2022-11-06T01:50:41.548Z,77191.53
2022-11-06T01:53:08.601Z,77193.47
2022-11-06T01:55:38.287Z,77195.41
2022-11-06T01:58:06.267Z,77201.19
2022-11-06T02:00:32.875Z,77203.09
2022-11-06T02:02:59.918Z,77199.25
2022-11-06T02:05:26.606Z,77203.09
2022-11-06T02:07:53.561Z,77201.19
2022-11-06T02:10:20.118Z,77203.09
2022-11-06T02:12:55.318Z,77206.97
2022-11-06T02:15:24.738Z,77214.66
2022-11-06T02:17:51.278Z,77214.66
2022-11-06T02:20:41.029Z,77214.66
2022-11-06T02:23:07.672Z,77222.38
2022-11-06T02:25:42.007Z,77226.22
2022-11-06T02:28:11.525Z,77228.16
2022-11-06T02:30:43.155Z,77237.78
2022-11-06T02:33:12.105Z,77241.66
2022-11-06T02:35:44.336Z,77245.50
2022-11-06T02:38:13.203Z,77247.44
2022-11-06T02:40:42.904Z,77249.38
2022-11-06T02:43:09.519Z,77259.00
2022-11-06T02:45:40.039Z,77257.06
2022-11-06T02:48:09.361Z,77257.06
2022-11-06T02:50:40.528Z,77264.78
2022-11-06T02:53:08.359Z,77264.78
2022-11-06T02:55:56.410Z,77266.72
2022-11-06T02:58:26.728Z,77272.50
2022-11-06T03:01:02.704Z,77278.28
2022-11-06T03:03:34.839Z,77284.06
2022-11-06T03:06:04.213Z,77280.19
2022-11-06T03:08:35.241Z,77284.06
2022-11-06T03:11:09.356Z,77287.91
2022-11-06T03:13:54.790Z,77280.19
2022-11-06T03:16:27.257Z,77291.75
2022-11-06T03:19:02.791Z,77295.63
2022-11-06T03:21:36.339Z,77295.63
2022-11-06T03:24:28.260Z,77291.75
2022-11-06T03:26:59.294Z,77301.41
2022-11-06T03:29:44.666Z,77301.41
2022-11-06T03:32:30.011Z,77303.34
2022-11-06T03:35:02.543Z,77318.75
2022-11-06T03:37:33.217Z,77316.81
2022-11-06T03:40:01.660Z,77311.03
2022-11-06T03:42:30.438Z,77314.91
2022-11-06T03:45:03.316Z,77318.75
2022-11-06T03:47:42.510Z,77328.38
2022-11-06T03:50:15.348Z,77330.31
2022-11-06T03:52:52.001Z,77334.16
2022-11-06T03:55:24.820Z,77341.88
2022-11-06T03:57:54.575Z,77334.16
2022-11-06T04:00:21.132Z,77343.81
2022-11-06T04:02:51.249Z,77349.59
2022-11-06T04:05:21.526Z,77347.66
2022-11-06T04:08:09.610Z,77353.44
2022-11-06T04:10:57.481Z,77343.81
2022-11-06T04:13:43.106Z,77351.50
2022-11-06T04:16:11.392Z,77365.00
2022-11-06T04:18:37.917Z,77363.09
2022-11-06T04:21:22.760Z,77372.72
2022-11-06T04:24:09.256Z,77368.88
2022-11-06T04:26:40.407Z,77376.56
2022-11-06T04:29:18.203Z,77388.13
2022-11-06T04:32:03.594Z,77388.13
2022-11-06T04:34:46.199Z,77397.78
2022-11-06T04:37:20.590Z,77409.34
2022-11-06T04:39:50.153Z,77407.41
2022-11-06T04:42:20.757Z,77411.25
2022-11-06T04:44:49.634Z,77411.25
2022-11-06T04:47:17.681Z,77411.25
2022-11-06T04:49:44.954Z,77422.84
2022-11-06T04:52:13.434Z,77432.47
2022-11-06T04:54:39.910Z,77430.53
2022-11-06T04:57:06.529Z,77430.53
2022-11-06T04:59:35.255Z,77442.09
2022-11-06T05:02:02.011Z,77445.97
2022-11-06T05:04:28.781Z,77442.09
2022-11-06T05:06:55.481Z,77445.97
2022-11-06T05:09:22.172Z,77449.81
2022-11-06T05:11:48.794Z,77461.38
2022-11-06T05:14:15.326Z,77467.16
2022-11-06T05:16:42.081Z,77469.09
2022-11-06T05:19:08.663Z,77476.81
2022-11-06T05:21:53.875Z,77474.88
2022-11-06T05:24:20.405Z,77461.38
2022-11-06T05:26:46.997Z,77465.25
2022-11-06T05:29:13.786Z,77457.53
2022-11-06T05:31:40.401Z,77465.25
2022-11-06T05:34:06.968Z,77449.81
2022-11-06T05:36:33.809Z,77455.59
2022-11-06T05:39:00.335Z,77451.75
2022-11-06T05:41:26.974Z,77445.97
2022-11-06T05:43:53.842Z,77445.97
2022-11-06T05:46:46.551Z,77449.81
2022-11-06T05:49:06.967Z,77455.59
2022-11-06T05:51:33.515Z,77457.53
2022-11-06T05:54:00.044Z,77457.53
2022-11-06T05:56:26.638Z,77461.38
2022-11-06T05:58:53.426Z,77453.69
2022-11-06T06:01:19.951Z,77453.69
2022-11-06T06:03:46.629Z,77442.09
2022-11-06T06:06:13.166Z,77444.03
2022-11-06T06:08:39.853Z,77453.69
2022-11-06T06:11:09.740Z,77449.81
2022-11-06T06:13:37.572Z,77453.69
2022-11-06T06:16:04.474Z,77451.75
2022-11-06T06:18:30.955Z,77438.25
2022-11-06T06:20:59.020Z,77430.53
2022-11-06T06:23:25.636Z,77434.41
2022-11-06T06:25:52.252Z,77422.84
2022-11-06T06:28:19.008Z,77420.91
2022-11-06T06:30:45.540Z,77403.56
2022-11-06T06:33:12.114Z,77392.00
2022-11-06T06:35:38.662Z,77380.44
2022-11-06T06:38:05.157Z,77361.16
2022-11-06T06:40:31.727Z,77357.28
2022-11-06T06:42:58.645Z,77345.72
2022-11-06T06:45:25.839Z,77341.88
2022-11-06T06:47:52.657Z,77349.59
2022-11-06T06:50:19.495Z,77355.38
2022-11-06T06:52:46.156Z,77349.59
2022-11-06T06:55:12.952Z,77349.59
2022-11-06T06:57:39.558Z,77341.88
2022-11-06T07:00:06.423Z,77338.03
2022-11-06T07:02:33.021Z,77334.16
2022-11-06T07:04:59.576Z,77332.25
2022-11-06T07:07:26.083Z,77326.47
2022-11-06T07:09:52.749Z,77295.63
2022-11-06T07:12:19.351Z,77239.72
2022-11-06T07:14:46.356Z,77193.47
2022-11-06T07:17:12.980Z,77137.56
2022-11-06T07:19:39.611Z,77077.81
2022-11-06T07:22:06.143Z,77079.75
2022-11-06T07:24:32.689Z,77058.56
2022-11-06T07:26:59.187Z,77014.22
2022-11-06T07:29:25.755Z,77021.94
2022-11-06T07:31:52.314Z,76975.69
2022-11-06T07:34:18.853Z,76962.19
2022-11-06T07:36:45.367Z,76914.00
2022-11-06T07:39:11.980Z,76912.09
2022-11-06T07:41:38.569Z,76879.31
2022-11-06T07:44:05.160Z,76860.06
2022-11-06T07:46:31.945Z,76852.34
2022-11-06T07:48:58.451Z,76840.78
2022-11-06T07:51:25.061Z,76867.75
2022-11-06T07:53:51.534Z,76863.91
2022-11-06T07:56:18.111Z,76829.22
2022-11-06T07:58:44.653Z,76842.69
2022-11-06T08:01:18.571Z,76806.09
2022-11-06T08:03:46.002Z,76827.28
2022-11-06T08:06:12.570Z,76821.50
2022-11-06T08:08:39.155Z,76829.22
2022-11-06T08:11:07.030Z,76809.94
2022-11-06T08:13:36.418Z,76809.94
2022-11-06T08:16:03.726Z,76825.34
2022-11-06T08:18:30.223Z,76779.09
2022-11-06T08:20:56.717Z,76802.22
2022-11-06T08:23:23.229Z,76782.97
2022-11-06T08:25:49.793Z,76752.13
2022-11-06T08:28:16.541Z,76725.16
2022-11-06T08:30:43.306Z,76717.44
2022-11-06T08:33:10.871Z,76715.50
2022-11-06T08:35:37.720Z,76700.09
2022-11-06T08:38:04.526Z,76698.16
2022-11-06T08:40:31.715Z,76678.91
2022-11-06T08:43:02.121Z,76692.38
2022-11-06T08:45:28.658Z,76702.03
2022-11-06T08:47:55.346Z,76690.47
2022-11-06T08:50:21.841Z,76628.78
2022-11-06T08:52:48.326Z,76636.50
2022-11-06T08:55:14.894Z,76646.13
2022-11-06T08:57:41.421Z,76590.25
2022-11-06T09:00:08.220Z,76619.16
2022-11-06T09:02:34.755Z,76557.50
2022-11-06T09:05:01.264Z,76567.13
2022-11-06T09:07:27.734Z,76601.81
2022-11-06T09:09:54.296Z,76578.69
2022-11-06T09:12:20.876Z,76528.59
2022-11-06T09:14:47.383Z,76569.06
2022-11-06T09:17:13.873Z,76582.53
2022-11-06T09:19:40.418Z,76578.69
2022-11-06T09:22:07.558Z,76540.16
2022-11-06T09:25:01.405Z,76509.31
2022-11-06T09:27:20.553Z,76513.16
2022-11-06T09:29:47.957Z,76505.47
2022-11-06T09:32:14.545Z,76509.31
2022-11-06T09:34:41.044Z,76570.97
2022-11-06T09:37:07.580Z,76544.00
2022-11-06T09:39:34.104Z,76509.31
2022-11-06T09:42:14.671Z,76472.72
2022-11-06T09:45:04.635Z,76474.63
2022-11-06T09:47:34.309Z,76501.63
2022-11-06T09:50:03.718Z,76459.22
2022-11-06T09:52:33.775Z,76513.16
2022-11-06T09:55:00.774Z,76520.88
2022-11-06T09:57:31.168Z,76451.50
2022-11-06T09:59:58.073Z,76474.63
2022-11-06T10:02:27.837Z,76441.88
2022-11-06T10:05:05.913Z,76416.81
2022-11-06T10:07:34.925Z,76434.16
2022-11-06T10:10:02.450Z,76366.72
2022-11-06T10:12:35.314Z,76389.84
2022-11-06T10:15:08.669Z,76409.13
2022-11-06T10:17:44.162Z,76378.28
2022-11-06T10:20:13.610Z,76386.00
2022-11-06T10:22:40.956Z,76426.47
2022-11-06T10:25:30.990Z,76401.41
2022-11-06T10:27:57.667Z,76374.44
2022-11-06T10:30:24.211Z,76362.88
2022-11-06T10:32:50.670Z,76393.69
2022-11-06T10:35:20.502Z,76366.72
2022-11-06T10:38:07.237Z,76412.97
2022-11-06T10:40:35.338Z,76438.03
2022-11-06T10:43:20.097Z,76357.09
2022-11-06T10:45:49.777Z,76324.34
2022-11-06T10:48:30.294Z,76343.59
2022-11-06T10:51:01.125Z,76324.34
2022-11-06T10:53:33.618Z,76332.03
2022-11-06T10:56:08.147Z,76339.75
2022-11-06T10:58:37.263Z,76297.34
2022-11-06T11:01:04.895Z,76297.34
2022-11-06T11:03:32.762Z,76301.22
2022-11-06T11:05:59.362Z,76295.44
2022-11-06T11:08:46.273Z,76316.63
2022-11-06T11:11:15.567Z,76276.16
2022-11-06T11:13:49.635Z,76256.91
2022-11-06T11:16:48.809Z,76285.78
2022-11-06T11:19:34.171Z,76264.59
2022-11-06T11:22:01.919Z,76262.66
2022-11-06T11:24:28.596Z,76281.94
2022-11-06T11:26:59.976Z,76251.13
2022-11-06T11:29:29.449Z,76189.44
2022-11-06T11:31:57.355Z,76183.69
2022-11-06T11:34:26.399Z,76226.06
2022-11-06T11:37:03.693Z,76281.94
2022-11-06T11:39:43.706Z,76289.66
2022-11-06T11:42:17.211Z,76197.16
2022-11-06T11:44:44.222Z,76237.63
2022-11-06T11:47:21.496Z,76143.22
2022-11-06T11:49:48.028Z,76228.00
2022-11-06T11:52:18.729Z,76201.00
2022-11-06T11:54:50.747Z,76258.81
2022-11-06T11:57:22.700Z,76318.56
2022-11-06T12:00:00.324Z,76301.22
2022-11-06T12:02:29.821Z,76216.44
2022-11-06T12:04:58.929Z,76281.94
2022-11-06T12:07:29.842Z,76266.53
2022-11-06T12:09:56.972Z,76247.25
2022-11-06T12:12:25.998Z,76212.56
2022-11-06T12:15:07.081Z,76170.19
2022-11-06T12:17:35.973Z,76104.69
2022-11-06T12:20:03.394Z,76139.34
2022-11-06T12:22:34.932Z,76204.88
2022-11-06T12:25:10.935Z,76193.31
2022-11-06T12:27:41.216Z,76193.31
2022-11-06T12:30:12.367Z,76195.22
2022-11-06T12:32:45.045Z,76156.69
2022-11-06T12:35:14.378Z,76210.66
2022-11-06T12:37:48.783Z,76191.38
2022-11-06T12:40:24.750Z,76137.44
2022-11-06T12:42:55.137Z,76122.00
2022-11-06T12:45:27.711Z,76112.38
2022-11-06T12:47:59.268Z,76166.34
2022-11-06T12:50:31.941Z,76116.25
2022-11-06T12:53:10.611Z,76152.84
2022-11-06T12:55:43.371Z,76149.00
2022-11-06T12:58:19.457Z,76185.59
2022-11-06T13:00:45.956Z,76162.47
2022-11-06T13:03:12.533Z,76162.47
2022-11-06T13:05:45.864Z,76145.13
2022-11-06T13:08:21.570Z,76179.81
2022-11-06T13:10:48.398Z,76154.78
2022-11-06T13:13:32.570Z,76162.47
2022-11-06T13:16:02.249Z,76160.56
2022-11-06T13:18:35.370Z,76197.16
2022-11-06T13:21:13.687Z,76156.69
2022-11-06T13:23:44.040Z,76175.97
2022-11-06T13:26:23.028Z,76201.00
2022-11-06T13:28:56.947Z,76204.88
2022-11-06T13:31:28.970Z,76212.56
2022-11-06T13:33:58.278Z,76228.00
2022-11-06T13:36:26.874Z,76237.63
2022-11-06T13:38:55.189Z,76243.41
2022-11-06T13:41:23.988Z,76247.25
2022-11-06T13:44:07.299Z,76262.66
2022-11-06T13:46:49.787Z,76278.09
2022-11-06T13:49:22.370Z,76285.78
2022-11-06T13:52:02.695Z,76293.50
2022-11-06T13:54:47.650Z,76316.63
2022-11-06T13:57:26.202Z,76335.91
2022-11-06T14:00:08.157Z,76335.91
2022-11-06T14:03:07.267Z,76328.19
2022-11-06T14:05:52.523Z,76343.59
2022-11-06T14:08:21.805Z,76357.09
2022-11-06T14:11:00.217Z,76359.00
2022-11-06T14:13:28.635Z,76351.31
2022-11-06T14:16:02.296Z,76353.25
2022-11-06T14:18:28.884Z,76328.19
2022-11-06T14:21:13.773Z,76332.03
2022-11-06T14:23:43.001Z,76347.47
2022-11-06T14:26:11.277Z,76355.16
2022-11-06T14:28:39.345Z,76360.94
2022-11-06T14:31:16.318Z,76372.50
2022-11-06T14:33:51.530Z,76378.28
2022-11-06T14:36:24.242Z,76380.22
2022-11-06T14:38:51.404Z,76391.78
2022-11-06T14:41:36.404Z,76405.25
2022-11-06T14:44:21.708Z,76412.97
2022-11-06T14:46:49.702Z,76432.25
2022-11-06T14:49:23.556Z,76436.09
2022-11-06T14:51:57.841Z,76447.66
2022-11-06T14:54:24.844Z,76466.94
2022-11-06T14:56:55.121Z,76484.28
2022-11-06T14:59:27.297Z,76488.13
2022-11-06T15:01:56.908Z,76493.91
2022-11-06T15:04:24.889Z,76497.75
2022-11-06T15:06:51.920Z,76513.16
2022-11-06T15:09:24.393Z,76536.28
2022-11-06T15:11:52.500Z,76549.78
2022-11-06T15:14:19.007Z,76559.41
2022-11-06T15:16:51.183Z,76582.53
2022-11-06T15:19:20.377Z,76603.75
2022-11-06T15:21:50.245Z,76626.88
2022-11-06T15:24:25.860Z,76636.50
2022-11-06T15:27:18.113Z,76650.00
2022-11-06T15:29:59.446Z,76665.41
2022-11-06T15:32:28.716Z,76673.13
2022-11-06T15:35:15.685Z,76682.75
2022-11-06T15:41:49.624Z,76717.44
2022-11-06T15:44:40.163Z,76725.16
2022-11-06T15:47:22.451Z,76729.00
2022-11-06T15:53:20.636Z,76746.34
2022-11-06T15:55:48.631Z,76761.75
2022-11-06T15:58:26.797Z,76771.41
2022-11-06T16:01:01.520Z,76779.09
2022-11-06T16:03:47.985Z,76790.66
2022-11-06T16:06:19.518Z,76806.09
2022-11-06T16:09:08.985Z,76819.56
2022-11-06T16:11:41.472Z,76829.22
2022-11-06T16:14:18.390Z,76836.94
2022-11-06T16:16:57.169Z,76836.94
2022-11-06T16:22:23.173Z,76856.19
2022-11-06T16:24:59.675Z,76852.34
2022-11-06T16:27:27.775Z,76863.91
2022-11-06T16:29:58.735Z,76863.91
2022-11-06T16:32:26.737Z,76867.75
2022-11-06T16:34:55.234Z,76875.47
2022-11-06T16:37:27.710Z,76871.63
2022-11-06T16:39:54.445Z,76883.19
2022-11-06T16:42:27.887Z,76887.03
2022-11-06T16:45:00.289Z,76888.97
2022-11-06T16:47:26.906Z,76900.53
2022-11-06T16:49:57.246Z,76890.88
2022-11-06T16:52:39.067Z,76883.19
2022-11-06T16:55:16.854Z,76898.59
2022-11-06T16:57:48.944Z,76883.19
2022-11-06T17:00:20.983Z,76858.13
2022-11-06T17:02:51.300Z,76844.63
2022-11-06T17:05:19.860Z,76838.84
2022-11-06T17:07:46.389Z,76852.34
2022-11-06T17:10:25.308Z,76863.91
2022-11-06T17:12:51.879Z,76848.47
2022-11-06T17:15:19.359Z,76863.91
2022-11-06T17:17:45.881Z,76892.81
2022-11-06T17:20:15.745Z,76906.31
2022-11-06T17:22:42.390Z,76906.31
2022-11-06T17:25:09.051Z,76883.19
2022-11-06T17:27:35.596Z,76902.44
2022-11-06T17:30:02.188Z,76931.34
2022-11-06T17:32:28.720Z,76925.56
2022-11-06T17:34:55.321Z,76906.31
2022-11-06T17:37:22.169Z,76902.44
2022-11-06T17:39:48.895Z,76896.66
2022-11-06T17:42:17.828Z,76896.66
2022-11-06T17:45:01.187Z,76898.59
2022-11-06T17:47:34.649Z,76919.78
2022-11-06T17:50:03.203Z,76956.41
2022-11-06T17:52:29.700Z,76987.25
2022-11-06T17:54:56.537Z,77006.53
2022-11-06T17:57:24.323Z,77018.09
2022-11-06T17:59:51.291Z,77033.50
2022-11-06T18:02:34.939Z,77037.34
2022-11-06T18:05:05.245Z,77045.06
2022-11-06T18:07:31.887Z,77054.69
2022-11-06T18:09:58.374Z,77060.47
2022-11-06T18:12:27.494Z,77062.41
2022-11-06T18:14:54.157Z,77075.91
2022-11-06T18:17:20.756Z,77079.75
2022-11-06T18:19:47.254Z,77087.47
2022-11-06T18:22:14.762Z,77099.03
2022-11-06T18:24:41.310Z,77099.03
2022-11-06T18:27:07.823Z,77095.19
2022-11-06T18:29:34.332Z,77114.44
2022-11-06T18:32:00.860Z,77127.94
2022-11-06T18:34:27.436Z,77129.88
2022-11-06T18:36:53.987Z,77141.44
2022-11-06T18:39:20.519Z,77158.78
2022-11-06T18:41:47.076Z,77172.28
2022-11-06T18:44:14.892Z,77168.41
2022-11-06T18:46:41.405Z,77168.41
2022-11-06T18:49:09.748Z,77160.69
2022-11-06T18:51:36.521Z,77160.69
2022-11-06T18:54:04.910Z,77160.69
2022-11-06T18:56:32.172Z,77176.13
2022-11-06T18:58:59.254Z,77183.84
2022-11-06T19:01:25.914Z,77191.53
2022-11-06T19:03:52.658Z,77191.53
2022-11-06T19:06:20.146Z,77191.53
2022-11-06T19:08:47.638Z,77187.69
2022-11-06T19:11:15.306Z,77191.53
2022-11-06T19:13:47.471Z,77201.19
2022-11-06T19:16:14.764Z,77206.97
2022-11-06T19:18:41.768Z,77214.66
2022-11-06T19:21:09.175Z,77226.22
2022-11-06T19:23:40.069Z,77230.09
2022-11-06T19:26:29.949Z,77218.53
2022-11-06T19:28:58.237Z,77222.38
2022-11-06T19:31:29.213Z,77214.66
2022-11-06T19:33:56.584Z,77214.66
2022-11-06T19:36:25.041Z,77212.75
2022-11-06T19:38:51.760Z,77203.09
2022-11-06T19:41:18.277Z,77187.69
2022-11-06T19:43:44.771Z,77187.69
2022-11-06T19:46:11.308Z,77189.63
2022-11-06T19:48:37.907Z,77187.69
2022-11-06T19:51:09.371Z,77183.84
2022-11-06T19:53:35.869Z,77187.69
2022-11-06T19:56:06.219Z,77179.97
2022-11-06T19:58:32.723Z,77168.41
2022-11-06T20:00:59.299Z,77172.28
2022-11-06T20:03:25.846Z,77156.84
2022-11-06T20:05:52.839Z,77149.13
2022-11-06T20:08:19.372Z,77149.13
2022-11-06T20:10:45.847Z,77141.44
2022-11-06T20:13:12.695Z,77133.72
2022-11-06T20:15:39.381Z,77120.22
2022-11-06T20:18:05.989Z,77106.75
2022-11-06T20:20:36.209Z,77091.31
2022-11-06T20:23:03.357Z,77085.53
2022-11-06T20:25:30.176Z,77091.31
2022-11-06T20:27:56.784Z,77095.19
2022-11-06T20:30:23.515Z,77097.09
2022-11-06T20:32:49.968Z,77106.75
2022-11-06T20:35:18.250Z,77110.59
2022-11-06T20:37:44.904Z,77110.59
2022-11-06T20:40:12.412Z,77102.88
2022-11-06T20:42:39.093Z,77083.59
2022-11-06T20:45:06.245Z,77085.53
2022-11-06T20:47:32.691Z,77083.59
2022-11-06T20:49:59.229Z,77087.47
2022-11-06T20:52:25.784Z,77097.09
2022-11-06T20:54:52.336Z,77093.25
2022-11-06T20:57:18.826Z,77099.03
2022-11-06T20:59:45.378Z,77099.03
2022-11-06T21:02:12.058Z,77099.03
2022-11-06T21:04:38.754Z,77104.81
2022-11-06T21:07:05.258Z,77099.03
2022-11-06T21:09:31.733Z,77102.88
2022-11-06T21:11:58.205Z,77110.59
2022-11-06T21:14:24.956Z,77102.88
2022-11-06T21:16:52.620Z,77108.66
2022-11-06T21:19:19.091Z,77110.59
2022-11-06T21:21:45.658Z,77106.75
2022-11-06T21:24:12.258Z,77087.47
2022-11-06T21:26:39.193Z,77083.59
2022-11-06T21:29:07.002Z,77060.47
2022-11-06T21:31:33.747Z,77048.91
2022-11-06T21:34:01.725Z,77058.56
2022-11-06T21:36:30.202Z,77072.03
2022-11-06T21:39:00.696Z,77072.03
2022-11-06T21:41:29.405Z,77075.91
2022-11-06T21:43:56.208Z,77047.00
2022-11-06T21:46:23.851Z,77048.91
2022-11-06T21:48:51.106Z,77031.56
2022-11-06T21:51:20.369Z,77014.22
2022-11-06T21:54:05.978Z,77000.75
2022-11-06T21:56:33.349Z,76964.13
2022-11-06T21:59:00.670Z,76948.69
2022-11-06T22:01:27.918Z,76941.00
2022-11-06T22:03:55.016Z,76944.84
2022-11-06T22:06:23.466Z,76942.91
2022-11-06T22:08:50.595Z,76925.56
2022-11-06T22:11:17.172Z,76910.16
2022-11-06T22:13:44.411Z,76912.09
2022-11-06T22:16:12.221Z,76910.16
2022-11-06T22:18:38.963Z,76894.75
2022-11-06T22:21:18.836Z,76887.03
2022-11-06T22:23:45.824Z,76883.19
2022-11-06T22:26:13.791Z,76887.03
2022-11-06T22:28:40.459Z,76863.91
2022-11-06T22:31:07.056Z,76871.63
2022-11-06T22:33:33.953Z,76883.19
2022-11-06T22:36:01.328Z,76888.97
2022-11-06T22:38:28.177Z,76883.19
2022-11-06T22:40:55.934Z,76888.97
2022-11-06T22:43:22.449Z,76890.88
2022-11-06T22:45:49.675Z,76898.59
2022-11-06T22:48:16.397Z,76904.38
2022-11-06T22:50:42.970Z,76912.09
2022-11-06T22:53:14.656Z,76929.44
2022-11-06T22:55:41.584Z,76937.13
2022-11-06T22:58:08.192Z,76950.63
2022-11-06T23:00:34.777Z,76954.47
2022-11-06T23:03:01.458Z,76962.19
2022-11-06T23:05:28.141Z,76975.69
2022-11-06T23:07:55.626Z,76967.97
2022-11-06T23:10:28.746Z,76979.53
2022-11-06T23:12:58.556Z,76983.38
2022-11-06T23:15:25.085Z,76994.97
2022-11-06T23:17:52.463Z,77000.75
2022-11-06T23:20:19.580Z,77010.38
2022-11-06T23:22:46.450Z,77020.00
2022-11-06T23:25:13.923Z,77033.50
2022-11-06T23:27:46.957Z,77033.50
2022-11-06T23:30:16.024Z,77048.91
2022-11-06T23:32:43.043Z,77048.91
2022-11-06T23:35:13.533Z,77047.00
2022-11-06T23:37:41.258Z,77037.34
2022-11-06T23:40:08.961Z,77033.50
2022-11-06T23:42:35.650Z,77037.34
2022-11-06T23:45:21.102Z,77033.50
2022-11-06T23:47:49.310Z,77045.06
2022-11-06T23:50:16.576Z,77058.56
2022-11-06T23:52:43.763Z,77066.25
2022-11-06T23:55:10.931Z,77064.34
2022-11-06T23:57:37.461Z,77075.91
